This is the latest recevied weather packets stored in our database for station/object KI6PPU. If no packets are shown the sender has not sent any weather packets the latest 10 day(s).
| Time | Temp. | Humidity | Pressure | Rain* | Wind** | Luminosity | Snow |
|---|---|---|---|---|---|---|---|
| 1788586288 | 12.22° C | 79% | 1017.6 hPa | 0 mm | - | 0 W/m² | - |
| 1788585987 | 12.22° C | 78% | 1017.8 hPa | 0 mm | - | 0 W/m² | - |
| 1788584461 | 12.78° C | 75% | 1017.7 hPa | 0 mm | - | 0 W/m² | - |
| 1788565015 | 25.56° C | 38% | 1016.4 hPa | 0 mm | - | 362 W/m² | - |
| 1788561370 | 23.89° C | 40% | 1016.6 hPa | 0 mm | - | 482 W/m² | - |
| 1788561065 | 24.44° C | 43% | 1016.6 hPa | 0 mm | - | 292 W/m² | - |
| 1788560156 | 24.44° C | 46% | 1016.5 hPa | 0 mm | - | 623 W/m² | - |
| 1788559856 | 24.44° C | 44% | 1016.5 hPa | 0 mm | - | 511 W/m² | - |
| 1788559550 | 25° C | 45% | 1016.6 hPa | 0 mm | - | 561 W/m² | - |
| 1788559246 | 23.89° C | 47% | 1016.5 hPa | 0 mm | - | 334 W/m² | - |
| 1788558941 | 25° C | 45% | 1016.4 hPa | 0 mm | - | 537 W/m² | - |
| 1788557725 | 23.89° C | 49% | 1016.2 hPa | 0 mm | - | 670 W/m² | - |
| 1788557422 | 23.33° C | 50% | 1016.5 hPa | 0 mm | - | 493 W/m² | - |
| 1788557121 | 23.33° C | 50% | 1016.5 hPa | 0 mm | - | 431 W/m² | - |
| 1788556816 | 23.33° C | 51% | 1016.3 hPa | 0 mm | - | 587 W/m² | - |
| 1788554689 | 22.22° C | 53% | 1016.7 hPa | 0 mm | - | 648 W/m² | - |
| 1788554081 | 22.78° C | 54% | 1016.8 hPa | 0 mm | - | 735 W/m² | - |
| 1788553777 | 22.78° C | 52% | 1016.6 hPa | 0 mm | - | 674 W/m² | - |
| 1788552863 | 21.67° C | 55% | 1016.6 hPa | 0 mm | - | 569 W/m² | - |
| 1788552559 | 22.22° C | 55% | 1016.6 hPa | 0 mm | - | 635 W/m² | - |
| 1788552257 | 21.67° C | 56% | 1016.8 hPa | 0 mm | - | 571 W/m² | - |
| 1788550740 | 21.11° C | 64% | 1017 hPa | 0 mm | - | 919 W/m² | - |
| 1788550130 | 21.11° C | 63% | 1017.1 hPa | 0 mm | - | 909 W/m² | - |
| 1788544963 | 16.67° C | 83% | 1017.4 hPa | 0 mm | - | 235 W/m² | - |
| 1788544360 | 16.67° C | 87% | 1017.4 hPa | 0 mm | - | 220 W/m² | - |
* Rain latest hour (hover to see other rain measurements)
** Current wind speed in m/s (hover to see current wind gust speed)